Time;durP1;ratioP1;P1;durP2;ratioP2;P2;SDS_P1;SDS_P2;PMS_P1;PMS_P2;Temp;Humidity;BMP_temperature;BMP_pressure;BME280_temperature;BME280_humidity;BME280_pressure;Samples;Min_cycle;Max_cycle;Signal;HPM_P1;HPM_P2
2021/06/19 00:00:33;;;;;;;3.03;1.85;;;;;;;20.85;53.69;100901.41;5028449;28;20041;-65
2021/06/19 00:03:03;;;;;;;3.60;1.80;;;;;;;20.72;54.18;100899.94;5029933;28;20045;-64
2021/06/19 00:05:31;;;;;;;2.58;1.88;;;;;;;20.64;54.46;100897.44;5030604;28;20120;-65
2021/06/19 00:07:58;;;;;;;3.22;1.73;;;;;;;20.65;54.55;100899.19;5030855;28;20038;-65
2021/06/19 00:10:26;;;;;;;3.45;2.28;;;;;;;20.69;54.60;100896.41;5033087;28;20088;-65
2021/06/19 00:12:54;;;;;;;3.63;2.25;;;;;;;20.61;54.74;100895.69;5029571;28;20065;-65
2021/06/19 00:15:24;;;;;;;4.75;1.70;;;;;;;20.56;54.95;100899.41;5030052;28;20041;-64
2021/06/19 00:17:51;;;;;;;2.95;2.15;;;;;;;20.51;55.10;100906.69;5028998;28;20052;-65
2021/06/19 00:20:24;;;;;;;6.20;1.88;;;;;;;20.45;55.36;100896.97;5030299;28;20401;-65
2021/06/19 00:22:53;;;;;;;5.28;2.00;;;;;;;20.42;55.75;100898.81;5029954;28;20516;-65
2021/06/19 00:25:23;;;;;;;3.03;2.10;;;;;;;20.39;56.50;100906.97;5029791;28;20045;-65
2021/06/19 00:27:51;;;;;;;3.45;2.30;;;;;;;20.31;56.74;100899.03;5029604;28;20064;-65
2021/06/19 00:30:20;;;;;;;4.82;2.28;;;;;;;20.41;56.87;100900.66;5022432;28;20037;-68
2021/06/19 00:32:48;;;;;;;2.17;1.90;;;;;;;20.36;57.00;100902.53;5029403;28;20436;-65
2021/06/19 00:35:16;;;;;;;5.72;2.03;;;;;;;20.38;56.62;100898.03;5030145;28;20056;-65
2021/06/19 00:37:47;;;;;;;2.60;2.15;;;;;;;20.37;56.34;100898.94;5029099;28;20049;-65
2021/06/19 00:40:17;;;;;;;4.60;2.03;;;;;;;20.35;56.44;100892.72;5029796;28;20079;-65
2021/06/19 00:42:52;;;;;;;5.25;2.17;;;;;;;20.28;56.99;100897.31;5027409;28;20088;-65
2021/06/19 00:45:19;;;;;;;4.32;2.58;;;;;;;20.46;56.88;100895.19;5029410;28;20120;-65
2021/06/19 00:47:47;;;;;;;5.28;2.47;;;;;;;20.46;56.95;100892.50;5029389;28;20041;-65
2021/06/19 00:50:15;;;;;;;4.20;2.42;;;;;;;20.46;57.18;100893.38;5029459;28;20568;-64
2021/06/19 00:52:44;;;;;;;5.80;2.40;;;;;;;20.50;57.16;100887.00;5028932;28;20052;-65
2021/06/19 00:55:12;;;;;;;3.97;2.50;;;;;;;20.56;56.91;100880.63;5029827;28;20540;-65
2021/06/19 00:57:41;;;;;;;6.53;2.55;;;;;;;20.58;57.13;100889.53;5028763;28;20038;-65
2021/06/19 01:00:11;;;;;;;5.03;2.70;;;;;;;20.50;57.16;100889.69;5028368;28;20521;-65
2021/06/19 01:02:39;;;;;;;2.72;2.08;;;;;;;20.34;58.01;100885.63;5028570;28;20605;-64
2021/06/19 01:05:09;;;;;;;5.70;2.58;;;;;;;20.32;58.74;100897.25;5028929;28;20042;-65
2021/06/19 01:07:37;;;;;;;4.03;2.63;;;;;;;20.34;58.59;100890.09;5028764;28;20049;-65
2021/06/19 01:10:07;;;;;;;4.03;2.60;;;;;;;20.35;58.91;100890.03;5029701;28;20041;-64
2021/06/19 01:12:35;;;;;;;3.95;2.30;;;;;;;20.30;59.17;100886.56;5028583;28;20092;-65
2021/06/19 01:15:03;;;;;;;3.60;1.95;;;;;;;20.23;59.46;100874.19;5028896;28;20458;-65
2021/06/19 01:17:31;;;;;;;5.95;2.58;;;;;;;20.26;59.59;100880.38;5029417;28;20121;-65
2021/06/19 01:20:02;;;;;;;4.40;2.50;;;;;;;20.29;59.81;100877.63;5047026;28;20461;-64
2021/06/19 01:22:30;;;;;;;5.30;3.00;;;;;;;20.24;60.25;100873.28;5046840;28;20124;-65
2021/06/19 01:25:01;;;;;;;4.05;2.45;;;;;;;20.20;60.64;100869.81;5029266;28;20131;-64
2021/06/19 01:27:29;;;;;;;3.70;2.70;;;;;;;20.19;61.15;100872.50;5048243;28;20065;-65
2021/06/19 01:29:59;;;;;;;4.95;2.55;;;;;;;20.10;61.78;100873.59;5029172;28;20037;-64
2021/06/19 01:32:28;;;;;;;4.40;2.85;;;;;;;20.01;62.17;100865.75;5015466;28;20120;-65
2021/06/19 01:34:55;;;;;;;3.63;2.30;;;;;;;20.08;61.89;100874.56;5029207;28;20141;-65
2021/06/19 01:37:23;;;;;;;4.32;2.50;;;;;;;20.00;62.44;100877.38;5028380;28;20052;-65
2021/06/19 01:39:51;;;;;;;6.55;2.80;;;;;;;19.98;62.82;100871.16;5028670;28;20053;-65
2021/06/19 01:42:20;;;;;;;5.80;2.45;;;;;;;19.95;62.92;100867.69;5028801;28;20092;-65
2021/06/19 01:44:47;;;;;;;4.60;2.42;;;;;;;19.98;62.76;100875.66;5028799;28;20037;-63
2021/06/19 01:47:15;;;;;;;7.95;2.80;;;;;;;19.99;62.75;100872.06;5028626;28;20129;-65
2021/06/19 01:49:42;;;;;;;4.88;2.55;;;;;;;19.94;63.18;100876.63;5028227;28;20030;-65
2021/06/19 01:52:10;;;;;;;4.65;2.53;;;;;;;19.94;63.47;100876.63;5029133;28;20040;-65
2021/06/19 01:54:40;;;;;;;4.55;2.53;;;;;;;19.92;63.61;100867.72;5032623;28;20042;-64
2021/06/19 01:57:09;;;;;;;5.65;2.80;;;;;;;19.92;63.77;100865.94;5031123;28;20128;-65
2021/06/19 01:59:38;;;;;;;8.57;3.67;;;;;;;19.93;63.75;100870.41;5032245;28;20044;-64
2021/06/19 02:02:06;;;;;;;5.43;2.85;;;;;;;19.91;63.65;100877.56;5031815;28;20061;-64
2021/06/19 02:04:34;;;;;;;4.40;2.75;;;;;;;19.92;63.50;100873.97;5032655;28;20041;-65
2021/06/19 02:07:02;;;;;;;3.67;2.55;;;;;;;19.92;63.18;100875.78;5032211;28;20036;-64
2021/06/19 02:09:29;;;;;;;4.30;2.83;;;;;;;19.82;63.33;100872.44;5032427;28;20455;-64
2021/06/19 02:11:57;;;;;;;6.22;3.10;;;;;;;19.87;63.72;100866.06;5032177;28;20052;-65
2021/06/19 02:14:25;;;;;;;5.78;3.17;;;;;;;19.85;63.83;100869.66;5032687;28;20037;-65
2021/06/19 02:16:55;;;;;;;7.65;2.97;;;;;;;19.88;63.72;100869.63;5032080;28;20406;-64
2021/06/19 02:19:23;;;;;;;4.03;2.53;;;;;;;19.91;63.41;100866.84;5032640;28;20049;-64
2021/06/19 02:21:51;;;;;;;5.88;2.70;;;;;;;19.96;63.26;100869.44;5032563;28;20961;-65
2021/06/19 02:24:19;;;;;;;7.53;2.60;;;;;;;19.97;63.10;100868.50;5031913;28;20120;-65
2021/06/19 02:26:48;;;;;;;6.50;3.03;;;;;;;19.97;63.10;100857.78;5031708;28;20129;-65
2021/06/19 02:29:15;;;;;;;6.15;3.08;;;;;;;19.95;63.67;100867.69;5032055;28;20045;-64
2021/06/19 02:31:43;;;;;;;4.88;2.80;;;;;;;19.95;63.59;100856.97;5030397;28;20124;-65
2021/06/19 02:34:12;;;;;;;5.10;3.00;;;;;;;19.94;63.44;100853.41;5032120;28;20065;-64
2021/06/19 02:36:40;;;;;;;3.97;2.45;;;;;;;19.88;63.10;100851.75;5031156;28;20117;-65
2021/06/19 02:39:07;;;;;;;5.35;2.53;;;;;;;19.75;63.35;100854.72;5031407;28;20095;-65
2021/06/19 02:41:35;;;;;;;4.32;2.65;;;;;;;19.74;63.36;100855.63;5031964;28;20456;-64
2021/06/19 02:44:02;;;;;;;4.47;2.38;;;;;;;19.69;63.72;100858.38;5031651;28;20513;-64
2021/06/19 02:46:29;;;;;;;3.67;2.53;;;;;;;19.67;63.59;100854.84;5031921;28;20163;-64
2021/06/19 02:48:57;;;;;;;4.57;2.40;;;;;;;19.66;63.43;100855.75;5047071;28;20112;-65
2021/06/19 02:51:26;;;;;;;3.08;2.17;;;;;;;19.67;63.20;100851.28;5050766;28;20045;-65
2021/06/19 02:53:54;;;;;;;3.45;2.47;;;;;;;19.58;63.37;100855.03;5050992;28;20120;-65
2021/06/19 02:56:21;;;;;;;4.13;2.50;;;;;;;19.52;63.25;100862.31;5050972;28;20140;-65
2021/06/19 02:58:49;;;;;;;4.47;2.65;;;;;;;19.52;63.25;100863.19;5050968;28;20116;-65
2021/06/19 03:01:16;;;;;;;3.55;2.50;;;;;;;19.59;62.83;100863.94;5051529;28;20048;-65
2021/06/19 03:03:43;;;;;;;4.35;2.83;;;;;;;19.59;62.81;100859.47;5050639;28;20052;-65
2021/06/19 03:06:11;;;;;;;4.15;2.75;;;;;;;19.62;62.61;100862.13;5050976;28;20077;-64
2021/06/19 03:08:40;;;;;;;6.07;2.75;;;;;;;19.60;62.48;100855.88;5050505;28;20037;-65
2021/06/19 03:11:07;;;;;;;5.70;2.72;;;;;;;19.53;62.45;100854.25;5051023;28;20044;-64
2021/06/19 03:13:35;;;;;;;5.75;2.67;;;;;;;19.55;62.40;100854.22;5050792;28;20064;-65
2021/06/19 03:16:03;;;;;;;4.00;2.83;;;;;;;19.59;62.37;100862.16;5050490;28;20187;-64
2021/06/19 03:18:31;;;;;;;4.35;2.63;;;;;;;19.69;62.50;100866.41;5034813;28;20581;-65
2021/06/19 03:20:58;;;;;;;5.07;2.50;;;;;;;19.80;62.60;100861.72;5050824;28;20049;-65
2021/06/19 03:23:25;;;;;;;4.40;2.60;;;;;;;20.01;62.26;100867.56;5051300;28;20124;-64
2021/06/19 03:25:54;;;;;;;5.82;2.58;;;;;;;20.16;61.76;100872.56;5049303;28;20067;-65
2021/06/19 03:28:22;;;;;;;3.83;2.20;;;;;;;20.22;62.06;100869.75;5026111;28;20116;-65
2021/06/19 03:30:50;;;;;;;3.70;2.17;;;;;;;20.36;61.84;100865.00;5030859;28;20125;-65
2021/06/19 03:33:18;;;;;;;2.60;2.10;;;;;;;20.53;61.21;100872.66;5030854;28;20095;-65
2021/06/19 03:35:46;;;;;;;3.35;1.77;;;;;;;20.62;60.62;100878.69;5030665;28;20036;-65
2021/06/19 03:38:14;;;;;;;2.70;2.00;;;;;;;20.63;59.79;100877.75;5020263;28;20046;-65
2021/06/19 03:40:41;;;;;;;4.43;2.25;;;;;;;20.51;59.24;100880.75;5030826;28;20124;-65
2021/06/19 03:43:11;;;;;;;3.35;2.08;;;;;;;20.58;58.65;100882.38;5030607;28;20046;-65
2021/06/19 03:45:39;;;;;;;2.97;1.70;;;;;;;20.79;58.65;100882.78;5031219;28;20117;-65
2021/06/19 03:48:08;;;;;;;2.90;2.08;;;;;;;21.07;58.77;100882.03;5030566;28;20088;-64
2021/06/19 03:50:36;;;;;;;5.43;2.22;;;;;;;21.30;58.68;100878.78;5030483;28;20509;-65
2021/06/19 03:53:05;;;;;;;3.17;2.10;;;;;;;21.55;58.22;100886.16;5030309;28;20037;-65
2021/06/19 03:55:33;;;;;;;5.53;1.80;;;;;;;21.70;58.31;100875.00;5030312;28;20037;-65
2021/06/19 03:58:01;;;;;;;7.93;2.15;;;;;;;21.85;57.71;100875.47;5029201;28;20040;-64
2021/06/19 04:00:31;;;;;;;4.43;2.17;;;;;;;22.05;57.38;100884.78;5050449;28;20051;-65
2021/06/19 04:03:00;;;;;;;2.72;1.83;;;;;;;22.18;57.34;100883.50;5041447;28;20045;-65
2021/06/19 04:05:27;;;;;;;4.95;2.00;;;;;;;22.36;56.83;100876.66;5030665;28;20124;-64
2021/06/19 04:07:55;;;;;;;2.58;1.75;;;;;;;22.52;56.52;100881.50;5029980;28;20049;-65
2021/06/19 04:10:25;;;;;;;1.63;1.50;;;;;;;22.75;56.00;100886.19;5030306;28;20050;-65
2021/06/19 04:12:52;;;;;;;3.40;1.90;;;;;;;22.95;55.91;100883.72;5031349;28;20045;-65
2021/06/19 04:15:21;;;;;;;2.67;1.67;;;;;;;23.15;55.79;100877.66;5029386;28;20076;-66
2021/06/19 04:17:51;;;;;;;2.15;1.50;;;;;;;23.32;54.87;100880.63;5031403;28;20038;-65
2021/06/19 04:20:18;;;;;;;2.13;1.50;;;;;;;23.53;54.43;100883.53;5030008;28;20509;-65
2021/06/19 04:22:47;;;;;;;3.38;1.52;;;;;;;23.82;53.79;100876.19;5030547;28;21963;-65
2021/06/19 04:25:16;;;;;;;5.45;1.80;;;;;;;24.12;53.07;100876.81;5044065;28;20068;-65
2021/06/19 04:27:45;;;;;;;3.58;1.45;;;;;;;24.36;52.05;100883.09;5029585;28;20163;-66
2021/06/19 04:30:15;;;;;;;4.57;1.55;;;;;;;24.58;51.65;100877.75;5029221;28;20064;-65
2021/06/19 04:32:42;;;;;;;1.83;1.45;;;;;;;24.88;51.01;100881.00;5029706;28;20041;-65
2021/06/19 04:35:14;;;;;;;2.80;1.80;;;;;;;25.15;50.43;100877.16;5028651;28;20150;-66
2021/06/19 04:37:42;;;;;;;3.05;1.50;;;;;;;25.40;49.87;100868.91;5029467;28;20056;-65
2021/06/19 04:40:15;;;;;;;2.90;1.48;;;;;;;25.65;49.08;100877.72;5029054;28;20041;-66
2021/06/19 04:42:45;;;;;;;1.67;1.30;;;;;;;25.97;48.18;100868.13;5028735;28;20386;-65
2021/06/19 04:45:14;;;;;;;1.30;1.15;;;;;;;26.29;47.17;100871.16;5029113;28;20030;-65
2021/06/19 04:47:42;;;;;;;3.05;1.60;;;;;;;26.59;46.41;100877.78;5029619;28;20424;-65
2021/06/19 04:50:14;;;;;;;2.28;1.60;;;;;;;26.96;45.84;100871.50;5029087;28;20459;-65
2021/06/19 04:52:42;;;;;;;3.13;1.20;;;;;;;27.24;45.21;100871.81;5028941;28;20389;-65
2021/06/19 04:55:12;;;;;;;1.70;1.20;;;;;;;27.57;44.06;100865.66;5028741;28;20038;-66
2021/06/19 04:57:41;;;;;;;1.73;1.15;;;;;;;27.81;43.62;100868.88;5029051;28;20057;-66
2021/06/19 05:00:11;;;;;;;1.95;1.45;;;;;;;28.11;43.02;100872.59;5028819;28;20052;-65
2021/06/19 05:02:39;;;;;;;1.67;1.00;;;;;;;28.35;42.12;100876.72;5028487;28;20107;-65
2021/06/19 05:05:08;;;;;;;3.30;1.30;;;;;;;28.65;41.61;100871.38;5027922;28;20059;-65
2021/06/19 05:07:37;;;;;;;2.30;1.60;;;;;;;28.88;40.81;100878.25;5028110;28;20064;-65
2021/06/19 05:10:06;;;;;;;1.48;1.00;;;;;;;29.14;39.86;100874.84;5028678;28;20049;-66
2021/06/19 05:12:34;;;;;;;2.20;1.20;;;;;;;29.47;39.43;100873.81;5029017;28;20120;-65
2021/06/19 05:15:02;;;;;;;2.17;1.10;;;;;;;29.76;38.73;100875.59;5029531;28;20444;-66
2021/06/19 05:17:30;;;;;;;1.95;1.13;;;;;;;29.98;38.21;100883.34;5040675;28;20116;-65
2021/06/19 05:19:58;;;;;;;2.45;1.10;;;;;;;30.28;37.49;100877.78;5048834;28;20041;-65
2021/06/19 05:22:26;;;;;;;3.00;1.17;;;;;;;30.63;36.73;100881.84;5032608;28;20037;-66
2021/06/19 05:24:55;;;;;;;1.98;1.10;;;;;;;30.76;36.40;100880.06;5029122;28;20493;-65
2021/06/19 05:27:23;;;;;;;3.88;1.33;;;;;;;31.00;35.91;100882.09;5028779;28;20060;-66
2021/06/19 05:29:50;;;;;;;2.65;0.93;;;;;;;31.38;35.03;100874.06;5011437;28;20038;-65
2021/06/19 05:32:20;;;;;;;2.55;0.90;;;;;;;31.50;34.87;100871.38;5028637;28;20157;-65
2021/06/19 05:34:48;;;;;;;2.55;1.13;;;;;;;31.77;33.86;100867.72;5028520;28;20038;-65
2021/06/19 05:37:16;;;;;;;1.23;1.10;;;;;;;32.11;32.93;100863.41;5028255;28;20037;-66
2021/06/19 05:39:43;;;;;;;1.27;1.00;;;;;;;32.32;32.00;100865.50;5028420;28;20124;-65
2021/06/19 05:42:13;;;;;;;3.75;0.98;;;;;;;32.46;31.30;100869.94;5024462;28;20136;-65
2021/06/19 05:44:41;;;;;;;2.80;0.90;;;;;;;32.69;30.96;100862.81;5031251;28;20087;-66
2021/06/19 05:47:09;;;;;;;1.88;0.80;;;;;;;32.93;30.70;100866.41;5044637;28;20037;-65
2021/06/19 05:49:39;;;;;;;2.00;1.00;;;;;;;32.93;30.75;100860.06;5040872;28;20084;-65
2021/06/19 05:52:08;;;;;;;2.00;1.10;;;;;;;33.21;30.36;100866.06;5042749;28;20034;-65
2021/06/19 05:54:37;;;;;;;2.90;0.90;;;;;;;33.34;29.93;100871.47;5021435;28;20073;-65
2021/06/19 05:57:05;;;;;;;1.05;0.70;;;;;;;33.59;29.46;100870.44;5031359;28;20041;-66
2021/06/19 05:59:35;;;;;;;2.03;0.80;;;;;;;33.75;28.98;100864.63;5039030;28;20045;-66
2021/06/19 06:02:03;;;;;;;1.63;1.05;;;;;;;33.77;28.56;100860.78;5019862;28;20132;-66
2021/06/19 06:04:31;;;;;;;1.33;0.88;;;;;;;33.77;28.87;100868.13;5019471;28;20045;-65
2021/06/19 06:06:58;;;;;;;1.15;1.02;;;;;;;33.81;28.49;100869.59;5021232;28;20041;-65
2021/06/19 06:09:26;;;;;;;1.10;1.00;;;;;;;33.80;28.20;100867.91;5023983;28;20052;-66
2021/06/19 06:11:54;;;;;;;2.20;0.90;;;;;;;33.97;28.41;100875.63;5022672;28;20046;-65
2021/06/19 06:14:22;;;;;;;2.97;1.58;;;;;;;34.10;28.68;100870.91;5020839;28;20111;-65
2021/06/19 06:16:51;;;;;;;1.05;0.95;;;;;;;34.15;28.76;100870.50;5019399;28;20044;-66
2021/06/19 06:19:21;;;;;;;2.38;0.80;;;;;;;34.18;28.53;100867.53;5017226;28;20050;-65
2021/06/19 06:21:49;;;;;;;3.03;1.05;;;;;;;34.04;28.66;100865.91;5021006;28;20044;-66
2021/06/19 06:24:17;;;;;;;1.77;1.13;;;;;;;33.85;28.84;100868.38;5018302;28;20121;-66
2021/06/19 06:26:44;;;;;;;1.50;0.82;;;;;;;33.74;29.49;100869.22;5017934;28;20040;-66
2021/06/19 06:29:12;;;;;;;2.15;1.02;;;;;;;33.85;29.51;100873.88;5018233;28;20045;-66
2021/06/19 06:31:39;;;;;;;1.63;0.98;;;;;;;33.87;28.98;100870.00;5021717;28;20112;-65
2021/06/19 06:34:08;;;;;;;2.08;0.90;;;;;;;33.51;29.47;100862.81;5018003;28;20048;-66
2021/06/19 06:36:36;;;;;;;3.33;1.00;;;;;;;33.52;28.98;100867.31;5018038;28;20041;-65
2021/06/19 06:39:04;;;;;;;1.25;0.90;;;;;;;33.26;28.96;100863.00;5016877;28;20042;-66
2021/06/19 06:41:32;;;;;;;2.72;1.00;;;;;;;33.00;29.32;100862.22;5024549;28;20049;-65
2021/06/19 06:44:00;;;;;;;2.55;0.95;;;;;;;33.13;29.43;100860.28;5027010;28;20049;-66
2021/06/19 06:46:27;;;;;;;3.03;0.95;;;;;;;33.11;29.24;100859.53;5026824;28;20405;-65
2021/06/19 06:48:55;;;;;;;1.52;1.08;;;;;;;33.09;29.17;100853.28;5006727;28;20053;-66
2021/06/19 06:51:24;;;;;;;1.27;0.85;;;;;;;33.02;29.24;100846.53;5022436;28;20136;-66
2021/06/19 06:53:53;;;;;;;2.78;1.23;;;;;;;32.97;29.46;100850.63;5024793;28;20078;-66
2021/06/19 06:56:20;;;;;;;2.15;0.98;;;;;;;33.13;29.95;100849.34;5024899;28;20068;-66
2021/06/19 06:58:48;;;;;;;0.98;0.75;;;;;;;33.11;30.04;100847.69;5025052;28;20052;-65
2021/06/19 07:01:16;;;;;;;2.25;1.25;;;;;;;33.14;30.05;100848.34;5028426;28;20414;-65
2021/06/19 07:03:43;;;;;;;3.03;0.98;;;;;;;33.12;29.44;100846.72;5023039;28;20038;-65
2021/06/19 07:06:11;;;;;;;4.72;1.10;;;;;;;33.10;30.30;100848.69;5021537;28;20041;-66
2021/06/19 07:08:40;;;;;;;3.50;1.55;;;;;;;33.35;29.38;100844.94;5029949;28;20092;-66
2021/06/19 07:11:07;;;;;;;2.20;0.80;;;;;;;33.32;29.14;100839.72;5030512;28;20042;-66
2021/06/19 07:13:35;;;;;;;2.75;1.10;;;;;;;33.47;29.17;100839.41;5027757;28;20128;-65
2021/06/19 07:16:02;;;;;;;2.17;0.70;;;;;;;33.67;29.03;100840.56;5029200;28;20451;-66
2021/06/19 07:18:29;;;;;;;0.75;0.70;;;;;;;33.75;27.67;100843.56;5014888;28;20133;-66
2021/06/19 07:20:57;;;;;;;1.63;0.80;;;;;;;33.91;26.53;100844.09;5025919;28;20053;-66
2021/06/19 07:23:25;;;;;;;2.03;0.77;;;;;;;34.26;26.98;100840.41;5017862;28;20053;-65
2021/06/19 07:25:55;;;;;;;1.17;0.90;;;;;;;34.47;26.92;100843.22;5021014;28;20154;-65
2021/06/19 07:28:23;;;;;;;0.90;0.85;;;;;;;34.44;27.64;100841.63;5019639;28;20057;-65
2021/06/19 07:30:51;;;;;;;3.13;1.05;;;;;;;34.54;27.12;100844.44;5027836;28;20083;-66
2021/06/19 07:33:18;;;;;;;0.90;0.73;;;;;;;34.71;26.83;100842.09;5027991;28;20041;-65
2021/06/19 07:35:46;;;;;;;1.30;0.90;;;;;;;34.86;26.46;100830.78;5011490;28;20564;-65
2021/06/19 07:38:14;;;;;;;1.23;0.63;;;;;;;34.62;26.01;100845.56;5025718;28;20124;-66
2021/06/19 07:40:41;;;;;;;2.63;0.80;;;;;;;34.62;25.88;100833.72;5030459;28;20120;-65
2021/06/19 07:43:10;;;;;;;2.60;1.00;;;;;;;34.84;25.36;100836.44;5029450;28;20124;-66
2021/06/19 07:45:38;;;;;;;1.60;0.70;;;;;;;34.94;25.31;100842.00;5029957;28;20052;-65
2021/06/19 07:48:06;;;;;;;0.90;0.70;;;;;;;35.09;25.47;100832.47;5029166;28;20041;-65
2021/06/19 07:50:37;;;;;;;1.05;0.75;;;;;;;35.30;24.86;100835.28;5025249;28;20112;-66
2021/06/19 07:53:05;;;;;;;2.65;0.90;;;;;;;35.48;24.81;100837.28;5029482;28;20053;-66
2021/06/19 07:55:32;;;;;;;1.20;0.73;;;;;;;35.46;23.88;100824.66;5030081;28;20137;-66
2021/06/19 07:58:00;;;;;;;1.25;0.90;;;;;;;35.40;23.97;100834.31;5037528;28;20033;-66
2021/06/19 08:00:30;;;;;;;0.60;0.60;;;;;;;35.52;23.52;100836.00;5029152;28;20542;-65
2021/06/19 08:02:58;;;;;;;1.38;1.10;;;;;;;35.60;23.57;100828.94;5030395;28;20053;-65
2021/06/19 08:05:26;;;;;;;1.02;0.70;;;;;;;35.84;23.44;100832.34;5029328;28;20137;-66
2021/06/19 08:07:54;;;;;;;3.25;0.70;;;;;;;35.95;23.50;100832.22;5030124;28;20935;-66
2021/06/19 08:10:21;;;;;;;0.80;0.70;;;;;;;36.01;22.88;100831.69;5027178;28;20048;-66
2021/06/19 08:12:51;;;;;;;0.70;0.50;;;;;;;36.10;22.80;100833.59;5029179;28;20485;-65
2021/06/19 08:15:18;;;;;;;0.85;0.60;;;;;;;36.18;22.79;100825.53;5026591;28;20057;-66
2021/06/19 08:17:48;;;;;;;0.85;0.55;;;;;;;36.31;22.18;100828.91;5028494;28;20044;-65
2021/06/19 08:20:16;;;;;;;2.63;0.63;;;;;;;36.22;22.74;100827.03;5027704;28;20034;-65
2021/06/19 08:22:44;;;;;;;0.80;0.68;;;;;;;36.14;22.98;100824.06;5028967;28;20125;-66
2021/06/19 08:25:12;;;;;;;0.85;0.70;;;;;;;36.06;23.19;100823.88;5016289;28;20037;-65
2021/06/19 08:27:39;;;;;;;0.50;0.50;;;;;;;35.75;23.08;100819.41;5024955;28;20107;-65
2021/06/19 08:30:08;;;;;;;1.08;0.65;;;;;;;35.31;23.56;100815.91;5025955;28;20049;-65
2021/06/19 08:32:36;;;;;;;0.95;0.70;;;;;;;35.02;23.99;100823.00;5027737;28;20120;-65
2021/06/19 08:35:07;;;;;;;1.83;0.63;;;;;;;34.84;24.60;100819.97;5028670;28;20046;-65
2021/06/19 08:37:34;;;;;;;1.75;0.88;;;;;;;34.76;24.75;100826.09;5009397;28;20497;-65
2021/06/19 08:40:02;;;;;;;0.82;0.68;;;;;;;35.02;24.49;100823.00;5029113;28;20042;-65
2021/06/19 08:42:29;;;;;;;1.20;0.68;;;;;;;35.01;25.21;100837.72;5029473;28;20033;-66
2021/06/19 08:45:01;;;;;;;1.48;0.80;;;;;;;34.66;25.57;100832.44;5028471;28;20049;-66
2021/06/19 08:47:35;;;;;;;1.52;0.65;;;;;;;34.59;25.57;100834.00;5029799;28;20045;-65
2021/06/19 08:50:05;;;;;;;;;;;;;;;34.29;26.59;100837.38;5042584;28;20049;-65
2021/06/19 08:52:34;;;;;;;2.45;0.85;;;;;;;34.19;28.17;100836.38;5030538;28;20408;-65
2021/06/19 08:55:02;;;;;;;2.67;0.85;;;;;;;33.77;29.79;100833.38;5049656;28;20041;-65
2021/06/19 08:57:29;;;;;;;1.13;0.80;;;;;;;33.66;29.61;100836.09;5047859;28;20051;-66
2021/06/19 08:59:57;;;;;;;1.60;0.90;;;;;;;33.48;29.47;100846.59;5048725;28;20080;-65
2021/06/19 09:02:26;;;;;;;2.33;0.90;;;;;;;33.37;30.23;100837.50;5029789;28;20501;-65
2021/06/19 09:04:59;;;;;;;1.30;0.77;;;;;;;33.44;30.21;100834.16;5048318;28;22824;-65
2021/06/19 09:07:41;;;;;;;1.13;0.77;;;;;;;33.82;29.26;100841.22;5026790;28;20045;-65
2021/06/19 09:10:32;;;;;;;1.75;0.80;;;;;;;33.52;29.07;100828.97;5023503;28;20048;-65
2021/06/19 09:13:07;;;;;;;2.33;0.90;;;;;;;33.55;28.95;100827.81;5029450;28;20388;-64
2021/06/19 09:15:39;;;;;;;1.40;1.00;;;;;;;33.60;28.74;100825.63;5028916;28;20045;-65
2021/06/19 09:18:12;;;;;;;2.70;1.00;;;;;;;33.89;28.70;100826.03;5028932;28;20049;-65
2021/06/19 09:20:48;;;;;;;1.40;1.08;;;;;;;33.96;28.38;100825.41;5045993;28;20044;-65
2021/06/19 09:23:34;;;;;;;1.35;0.80;;;;;;;33.78;28.59;100823.28;5048348;28;20421;-65
2021/06/19 09:26:10;;;;;;;2.10;1.15;;;;;;;33.20;29.71;100828.75;5047135;28;20056;-65
2021/06/19 09:28:59;;;;;;;1.63;0.93;;;;;;;33.08;29.71;100824.16;5046899;28;20051;-65
2021/06/19 09:31:36;;;;;;;3.83;1.10;;;;;;;33.03;29.03;100822.78;5028365;28;20073;-66
2021/06/19 09:34:05;;;;;;;2.42;1.30;;;;;;;33.08;29.98;100823.31;5015298;28;20038;-65
2021/06/19 09:36:41;;;;;;;2.10;1.00;;;;;;;33.13;29.94;100824.72;5028286;28;20041;-65
2021/06/19 09:39:12;;;;;;;1.25;0.90;;;;;;;32.97;29.60;100826.88;5027947;28;20034;-65
2021/06/19 09:41:42;;;;;;;1.33;0.98;;;;;;;33.15;29.09;100817.22;5009218;28;20117;-66
2021/06/19 09:44:09;;;;;;;2.38;1.10;;;;;;;33.37;29.12;100816.47;5021401;28;20083;-65
2021/06/19 09:46:37;;;;;;;1.65;1.00;;;;;;;33.27;28.82;100826.41;5028300;28;20049;-65
2021/06/19 09:49:13;;;;;;;1.98;1.00;;;;;;;33.42;29.15;100821.56;5028220;28;20107;-65
2021/06/19 09:51:49;;;;;;;2.30;1.00;;;;;;;33.32;29.03;100826.03;5026918;28;20045;-65
2021/06/19 09:54:20;;;;;;;1.55;0.95;;;;;;;33.17;28.53;100818.00;5027413;28;20041;-66
2021/06/19 09:56:52;;;;;;;1.75;0.95;;;;;;;33.02;28.16;100815.56;5047334;28;20041;-65
2021/06/19 09:59:32;;;;;;;1.85;1.00;;;;;;;32.88;27.84;100818.50;5047584;28;20037;-65
2021/06/19 10:02:04;;;;;;;2.47;1.00;;;;;;;32.95;28.07;100825.25;5035104;28;20161;-65
2021/06/19 10:04:33;;;;;;;1.20;1.05;;;;;;;32.74;28.76;100817.72;5032624;28;20036;-65
2021/06/19 10:07:01;;;;;;;1.83;0.98;;;;;;;32.94;29.03;100824.38;5036210;28;20052;-65
2021/06/19 10:09:35;;;;;;;4.10;1.20;;;;;;;32.87;28.65;100828.59;5035679;28;20063;-65
2021/06/19 10:12:04;;;;;;;1.42;1.05;;;;;;;32.90;28.84;100827.44;5029080;28;20041;-65
2021/06/19 10:14:35;;;;;;;1.67;1.15;;;;;;;32.87;28.94;100827.72;5043223;28;20045;-65
2021/06/19 10:17:03;;;;;;;1.10;0.80;;;;;;;32.68;27.42;100829.13;5033257;28;20041;-65
2021/06/19 10:19:33;;;;;;;9.93;1.10;;;;;;;32.62;27.98;100812.25;5042640;28;20199;-65
2021/06/19 10:22:00;;;;;;;3.17;0.73;;;;;;;32.66;27.07;100814.63;5043454;28;20120;-65
2021/06/19 10:24:30;;;;;;;1.55;1.00;;;;;;;32.62;27.53;100815.00;5031186;28;20358;-65
2021/06/19 10:27:00;;;;;;;1.10;0.80;;;;;;;32.49;28.10;100819.63;5029633;28;20079;-65
2021/06/19 10:29:31;;;;;;;0.98;0.70;;;;;;;32.55;27.82;100822.78;5031551;28;20056;-65
2021/06/19 10:32:02;;;;;;;2.05;0.90;;;;;;;32.67;27.43;100816.44;5033560;28;20064;-64
2021/06/19 10:34:34;;;;;;;1.70;0.95;;;;;;;32.56;26.93;100823.66;5012771;28;20041;-65
2021/06/19 10:37:07;;;;;;;2.03;0.90;;;;;;;32.48;27.25;100826.97;5035536;28;20057;-65
2021/06/19 10:39:43;;;;;;;2.33;1.00;;;;;;;32.47;27.21;100817.00;5039422;28;20116;-65
2021/06/19 10:42:34;;;;;;;3.33;1.10;;;;;;;32.54;26.62;100815.56;5037001;28;20106;-64
2021/06/19 10:45:04;;;;;;;2.42;0.90;;;;;;;32.46;26.78;100812.53;5027455;28;20057;-65
2021/06/19 10:47:37;;;;;;;2.78;1.17;;;;;;;32.41;28.04;100823.81;5028278;28;20742;-64
2021/06/19 10:50:22;;;;;;;3.97;1.00;;;;;;;32.47;28.46;100819.75;5029357;28;20053;-65
2021/06/19 10:53:04;;;;;;;1.63;0.95;;;;;;;32.19;28.96;100815.44;5039976;28;20037;-65
2021/06/19 10:55:34;;;;;;;1.92;1.23;;;;;;;32.36;29.23;100820.53;5051746;28;20120;-65
2021/06/19 10:58:05;;;;;;;1.63;0.82;;;;;;;32.41;28.87;100814.75;5046829;28;20037;-65
2021/06/19 11:00:35;;;;;;;2.42;1.10;;;;;;;32.69;27.89;100825.38;5050678;28;20481;-65
2021/06/19 11:03:05;;;;;;;2.10;1.20;;;;;;;33.09;27.37;100820.44;5050776;28;20037;-65
2021/06/19 11:06:01;;;;;;;2.03;1.30;;;;;;;33.05;26.98;100813.47;5039980;28;20409;-64
2021/06/19 11:08:50;;;;;;;3.67;1.05;;;;;;;33.14;27.78;100817.38;4995086;28;20052;-64
2021/06/19 11:12:04;;;;;;;1.73;0.95;;;;;;;33.34;27.61;100811.25;5043062;28;20556;-64
2021/06/19 11:14:56;;;;;;;3.70;1.15;;;;;;;33.62;27.51;100819.00;5041901;28;20099;-65
2021/06/19 11:17:48;;;;;;;1.95;0.93;;;;;;;33.72;27.29;100827.41;5039678;28;20448;-65
2021/06/19 11:20:33;;;;;;;2.28;1.05;;;;;;;33.68;27.30;100824.97;5027559;28;20362;-65
2021/06/19 11:23:11;;;;;;;2.33;1.00;;;;;;;33.70;27.55;100823.88;5038266;28;20046;-65
2021/06/19 11:26:02;;;;;;;2.08;1.00;;;;;;;33.65;27.47;100820.63;5027203;28;20037;-65
2021/06/19 11:28:34;;;;;;;4.82;1.10;;;;;;;33.63;27.69;100814.41;5030817;28;20099;-65
2021/06/19 11:31:05;;;;;;;2.17;1.00;;;;;;;33.82;27.53;100808.34;5049626;28;20411;-66
2021/06/19 11:33:49;;;;;;;1.23;0.80;;;;;;;33.90;27.39;100809.47;5039308;28;20037;-65
2021/06/19 11:36:30;;;;;;;;;;;;;;;33.70;27.44;100804.69;5031584;28;20099;-65
2021/06/19 11:39:17;;;;;;;5.07;1.23;;;;;;;33.75;27.67;100813.44;5030580;28;20325;-65